sensor_id;sensor_type;location;lat;lon;timestamp;temperature;humidity
34095;DHT22;20372;47.080;15.410;2022-09-03T00:01:18;14.60;99.90
34095;DHT22;20372;47.080;15.410;2022-09-03T00:03:48;14.50;99.90
34095;DHT22;20372;47.080;15.410;2022-09-03T00:06:17;14.50;99.90
34095;DHT22;20372;47.080;15.410;2022-09-03T00:08:47;14.30;99.90
34095;DHT22;20372;47.080;15.410;2022-09-03T00:13:43;14.20;99.90
34095;DHT22;20372;47.080;15.410;2022-09-03T00:16:11;14.10;99.90
34095;DHT22;20372;47.080;15.410;2022-09-03T00:18:59;14.10;99.90
34095;DHT22;20372;47.080;15.410;2022-09-03T00:22:07;14.10;99.90
34095;DHT22;20372;47.080;15.410;2022-09-03T00:24:12;14.10;99.90
34095;DHT22;20372;47.080;15.410;2022-09-03T00:26:40;14.10;99.90
34095;DHT22;20372;47.080;15.410;2022-09-03T00:29:11;14.00;99.90
34095;DHT22;20372;47.080;15.410;2022-09-03T00:31:49;14.00;99.90
34095;DHT22;20372;47.080;15.410;2022-09-03T00:34:19;14.00;99.90
34095;DHT22;20372;47.080;15.410;2022-09-03T00:36:47;13.90;99.90
34095;DHT22;20372;47.080;15.410;2022-09-03T00:39:17;13.90;99.90
34095;DHT22;20372;47.080;15.410;2022-09-03T00:44:51;13.80;99.90
34095;DHT22;20372;47.080;15.410;2022-09-03T00:47:33;13.80;99.90
34095;DHT22;20372;47.080;15.410;2022-09-03T00:52:53;13.70;99.90
34095;DHT22;20372;47.080;15.410;2022-09-03T01:00:22;13.80;99.90
34095;DHT22;20372;47.080;15.410;2022-09-03T01:02:50;13.60;99.90
34095;DHT22;20372;47.080;15.410;2022-09-03T01:05:41;13.70;99.90
34095;DHT22;20372;47.080;15.410;2022-09-03T01:10:49;13.70;99.90
34095;DHT22;20372;47.080;15.410;2022-09-03T01:13:34;13.60;99.90
34095;DHT22;20372;47.080;15.410;2022-09-03T01:16:47;13.50;99.90
34095;DHT22;20372;47.080;15.410;2022-09-03T01:19:34;13.60;99.90
34095;DHT22;20372;47.080;15.410;2022-09-03T01:39:34;13.30;99.90
34095;DHT22;20372;47.080;15.410;2022-09-03T01:53:24;13.10;99.90
34095;DHT22;20372;47.080;15.410;2022-09-03T01:58:29;13.10;99.90
34095;DHT22;20372;47.080;15.410;2022-09-03T02:01:02;13.20;99.90
34095;DHT22;20372;47.080;15.410;2022-09-03T02:03:35;13.10;99.90
34095;DHT22;20372;47.080;15.410;2022-09-03T02:06:02;13.10;99.90
34095;DHT22;20372;47.080;15.410;2022-09-03T02:08:28;13.10;99.90
34095;DHT22;20372;47.080;15.410;2022-09-03T02:10:55;13.00;99.90
34095;DHT22;20372;47.080;15.410;2022-09-03T02:13:37;13.20;99.90
34095;DHT22;20372;47.080;15.410;2022-09-03T02:16:06;13.30;99.90
34095;DHT22;20372;47.080;15.410;2022-09-03T02:18:36;13.20;99.90
34095;DHT22;20372;47.080;15.410;2022-09-03T02:21:05;13.30;99.90
34095;DHT22;20372;47.080;15.410;2022-09-03T02:23:31;13.20;99.90
34095;DHT22;20372;47.080;15.410;2022-09-03T02:25:59;13.00;99.90
34095;DHT22;20372;47.080;15.410;2022-09-03T02:28:25;13.00;99.90
34095;DHT22;20372;47.080;15.410;2022-09-03T02:30:52;12.90;99.90
34095;DHT22;20372;47.080;15.410;2022-09-03T02:33:17;12.90;99.90
34095;DHT22;20372;47.080;15.410;2022-09-03T02:35:43;12.90;99.90
34095;DHT22;20372;47.080;15.410;2022-09-03T02:38:13;12.90;99.90
34095;DHT22;20372;47.080;15.410;2022-09-03T02:40:41;12.80;99.90
34095;DHT22;20372;47.080;15.410;2022-09-03T02:43:07;12.80;99.90
34095;DHT22;20372;47.080;15.410;2022-09-03T02:45:35;12.80;99.90
34095;DHT22;20372;47.080;15.410;2022-09-03T02:48:01;12.80;99.90
34095;DHT22;20372;47.080;15.410;2022-09-03T02:50:28;12.80;99.90
34095;DHT22;20372;47.080;15.410;2022-09-03T02:52:53;12.80;99.90
34095;DHT22;20372;47.080;15.410;2022-09-03T02:55:19;12.80;99.90
34095;DHT22;20372;47.080;15.410;2022-09-03T02:57:45;12.80;99.90
34095;DHT22;20372;47.080;15.410;2022-09-03T03:00:12;12.80;99.90
34095;DHT22;20372;47.080;15.410;2022-09-03T03:02:38;12.80;99.90
34095;DHT22;20372;47.080;15.410;2022-09-03T03:05:04;12.70;99.90
34095;DHT22;20372;47.080;15.410;2022-09-03T03:07:31;12.70;99.90
34095;DHT22;20372;47.080;15.410;2022-09-03T03:10:01;12.60;99.90
34095;DHT22;20372;47.080;15.410;2022-09-03T03:12:26;12.80;99.90
34095;DHT22;20372;47.080;15.410;2022-09-03T03:14:54;12.80;99.90
34095;DHT22;20372;47.080;15.410;2022-09-03T03:17:20;12.80;99.90
34095;DHT22;20372;47.080;15.410;2022-09-03T03:19:45;12.70;99.90
34095;DHT22;20372;47.080;15.410;2022-09-03T03:22:11;12.70;99.90
34095;DHT22;20372;47.080;15.410;2022-09-03T03:24:36;12.70;99.90
34095;DHT22;20372;47.080;15.410;2022-09-03T03:27:02;12.70;99.90
34095;DHT22;20372;47.080;15.410;2022-09-03T03:29:30;12.60;99.90
34095;DHT22;20372;47.080;15.410;2022-09-03T03:31:56;12.60;99.90
34095;DHT22;20372;47.080;15.410;2022-09-03T03:34:22;12.60;99.90
34095;DHT22;20372;47.080;15.410;2022-09-03T03:36:48;12.60;99.90
34095;DHT22;20372;47.080;15.410;2022-09-03T03:39:13;12.50;99.90
34095;DHT22;20372;47.080;15.410;2022-09-03T03:41:39;12.50;99.90
34095;DHT22;20372;47.080;15.410;2022-09-03T03:44:05;12.50;99.90
34095;DHT22;20372;47.080;15.410;2022-09-03T03:46:32;12.50;99.90
34095;DHT22;20372;47.080;15.410;2022-09-03T03:48:58;12.40;99.90
34095;DHT22;20372;47.080;15.410;2022-09-03T03:51:24;12.40;99.90
34095;DHT22;20372;47.080;15.410;2022-09-03T03:53:52;12.40;99.90
34095;DHT22;20372;47.080;15.410;2022-09-03T03:56:18;12.40;99.90
34095;DHT22;20372;47.080;15.410;2022-09-03T03:58:43;12.40;99.90
34095;DHT22;20372;47.080;15.410;2022-09-03T04:01:19;12.40;99.90
34095;DHT22;20372;47.080;15.410;2022-09-03T04:03:45;12.40;99.90
34095;DHT22;20372;47.080;15.410;2022-09-03T04:06:12;12.40;99.90
34095;DHT22;20372;47.080;15.410;2022-09-03T04:08:38;12.40;99.90
34095;DHT22;20372;47.080;15.410;2022-09-03T04:11:05;12.40;99.90
34095;DHT22;20372;47.080;15.410;2022-09-03T04:13:32;12.50;99.90
34095;DHT22;20372;47.080;15.410;2022-09-03T04:16:05;12.50;99.90
34095;DHT22;20372;47.080;15.410;2022-09-03T04:18:31;12.40;99.90
34095;DHT22;20372;47.080;15.410;2022-09-03T04:21:03;12.30;99.90
34095;DHT22;20372;47.080;15.410;2022-09-03T04:23:32;12.30;99.90
34095;DHT22;20372;47.080;15.410;2022-09-03T04:25:58;12.30;99.90
34095;DHT22;20372;47.080;15.410;2022-09-03T04:28:24;12.30;99.90
34095;DHT22;20372;47.080;15.410;2022-09-03T04:30:50;12.30;99.90
34095;DHT22;20372;47.080;15.410;2022-09-03T04:33:15;12.30;99.90
34095;DHT22;20372;47.080;15.410;2022-09-03T04:35:41;12.30;99.90
34095;DHT22;20372;47.080;15.410;2022-09-03T04:38:07;12.30;99.90
34095;DHT22;20372;47.080;15.410;2022-09-03T04:40:33;12.30;99.90
34095;DHT22;20372;47.080;15.410;2022-09-03T04:42:58;12.30;99.90
34095;DHT22;20372;47.080;15.410;2022-09-03T04:45:25;12.30;99.90
34095;DHT22;20372;47.080;15.410;2022-09-03T04:47:55;12.30;99.90
34095;DHT22;20372;47.080;15.410;2022-09-03T04:50:21;12.30;99.90
34095;DHT22;20372;47.080;15.410;2022-09-03T04:52:47;12.30;99.90
34095;DHT22;20372;47.080;15.410;2022-09-03T04:55:13;12.30;99.90
34095;DHT22;20372;47.080;15.410;2022-09-03T04:57:39;12.50;99.90
34095;DHT22;20372;47.080;15.410;2022-09-03T05:00:07;12.50;99.90
34095;DHT22;20372;47.080;15.410;2022-09-03T05:02:36;12.50;99.90
34095;DHT22;20372;47.080;15.410;2022-09-03T05:05:01;12.50;99.90
34095;DHT22;20372;47.080;15.410;2022-09-03T05:07:28;12.60;99.90
34095;DHT22;20372;47.080;15.410;2022-09-03T05:10:09;12.70;99.90
34095;DHT22;20372;47.080;15.410;2022-09-03T05:12:37;12.80;99.90
34095;DHT22;20372;47.080;15.410;2022-09-03T05:15:04;13.00;99.90
34095;DHT22;20372;47.080;15.410;2022-09-03T05:17:30;13.10;99.90
34095;DHT22;20372;47.080;15.410;2022-09-03T05:19:55;13.10;99.90
34095;DHT22;20372;47.080;15.410;2022-09-03T05:22:21;13.30;99.90
34095;DHT22;20372;47.080;15.410;2022-09-03T05:24:47;13.80;99.90
34095;DHT22;20372;47.080;15.410;2022-09-03T05:27:13;14.40;99.90
34095;DHT22;20372;47.080;15.410;2022-09-03T05:29:44;14.80;99.90
34095;DHT22;20372;47.080;15.410;2022-09-03T05:32:10;15.00;99.90
34095;DHT22;20372;47.080;15.410;2022-09-03T05:34:42;15.30;99.90
34095;DHT22;20372;47.080;15.410;2022-09-03T05:37:08;15.20;99.90
34095;DHT22;20372;47.080;15.410;2022-09-03T05:39:34;15.00;99.90
34095;DHT22;20372;47.080;15.410;2022-09-03T05:41:59;14.60;99.90
34095;DHT22;20372;47.080;15.410;2022-09-03T05:44:25;14.40;99.90
34095;DHT22;20372;47.080;15.410;2022-09-03T05:46:51;14.10;99.90
34095;DHT22;20372;47.080;15.410;2022-09-03T05:49:16;13.80;99.90
34095;DHT22;20372;47.080;15.410;2022-09-03T05:51:42;13.90;99.90
34095;DHT22;20372;47.080;15.410;2022-09-03T05:54:08;14.20;99.90
34095;DHT22;20372;47.080;15.410;2022-09-03T05:56:34;14.80;99.90
34095;DHT22;20372;47.080;15.410;2022-09-03T05:59:01;15.80;99.90
34095;DHT22;20372;47.080;15.410;2022-09-03T06:01:31;16.20;99.90
34095;DHT22;20372;47.080;15.410;2022-09-03T06:04:03;16.50;99.90
34095;DHT22;20372;47.080;15.410;2022-09-03T06:06:30;17.00;99.90
34095;DHT22;20372;47.080;15.410;2022-09-03T06:08:57;17.60;99.90
34095;DHT22;20372;47.080;15.410;2022-09-03T06:11:24;18.00;99.90
34095;DHT22;20372;47.080;15.410;2022-09-03T06:13:53;17.80;97.80
34095;DHT22;20372;47.080;15.410;2022-09-03T06:16:19;18.10;97.70
34095;DHT22;20372;47.080;15.410;2022-09-03T06:18:46;17.80;97.40
34095;DHT22;20372;47.080;15.410;2022-09-03T06:21:12;18.00;97.70
34095;DHT22;20372;47.080;15.410;2022-09-03T06:23:39;18.50;97.20
34095;DHT22;20372;47.080;15.410;2022-09-03T06:26:09;18.80;96.70
34095;DHT22;20372;47.080;15.410;2022-09-03T06:28:36;18.90;95.10
34095;DHT22;20372;47.080;15.410;2022-09-03T06:31:03;19.10;94.40
34095;DHT22;20372;47.080;15.410;2022-09-03T06:33:29;18.90;94.60
34095;DHT22;20372;47.080;15.410;2022-09-03T06:35:56;19.30;95.30
34095;DHT22;20372;47.080;15.410;2022-09-03T06:38:23;19.30;94.20
34095;DHT22;20372;47.080;15.410;2022-09-03T06:40:53;19.40;94.20
34095;DHT22;20372;47.080;15.410;2022-09-03T06:43:19;19.40;94.00
34095;DHT22;20372;47.080;15.410;2022-09-03T06:45:55;19.90;93.40
34095;DHT22;20372;47.080;15.410;2022-09-03T06:48:21;19.70;92.60
34095;DHT22;20372;47.080;15.410;2022-09-03T06:50:53;19.40;94.00
34095;DHT22;20372;47.080;15.410;2022-09-03T06:53:21;19.80;93.10
34095;DHT22;20372;47.080;15.410;2022-09-03T06:55:56;20.10;93.40
34095;DHT22;20372;47.080;15.410;2022-09-03T06:58:23;20.20;91.90
34095;DHT22;20372;47.080;15.410;2022-09-03T07:00:49;20.20;92.40
34095;DHT22;20372;47.080;15.410;2022-09-03T07:03:17;20.10;91.40
34095;DHT22;20372;47.080;15.410;2022-09-03T07:05:44;20.70;92.30
34095;DHT22;20372;47.080;15.410;2022-09-03T07:08:10;21.60;91.10
34095;DHT22;20372;47.080;15.410;2022-09-03T07:10:36;21.70;90.90
34095;DHT22;20372;47.080;15.410;2022-09-03T07:13:02;21.20;90.20
34095;DHT22;20372;47.080;15.410;2022-09-03T07:15:28;21.20;90.70
34095;DHT22;20372;47.080;15.410;2022-09-03T07:17:53;21.20;90.50
34095;DHT22;20372;47.080;15.410;2022-09-03T07:20:20;21.50;89.10
34095;DHT22;20372;47.080;15.410;2022-09-03T07:22:45;21.70;87.80
34095;DHT22;20372;47.080;15.410;2022-09-03T07:25:11;21.60;86.60
34095;DHT22;20372;47.080;15.410;2022-09-03T07:27:36;21.70;89.00
34095;DHT22;20372;47.080;15.410;2022-09-03T07:30:02;21.80;89.40
34095;DHT22;20372;47.080;15.410;2022-09-03T07:32:28;21.90;87.00
34095;DHT22;20372;47.080;15.410;2022-09-03T07:34:54;22.00;86.20
34095;DHT22;20372;47.080;15.410;2022-09-03T07:37:19;22.50;85.60
34095;DHT22;20372;47.080;15.410;2022-09-03T07:39:45;22.70;84.80
34095;DHT22;20372;47.080;15.410;2022-09-03T07:42:11;22.30;84.80
34095;DHT22;20372;47.080;15.410;2022-09-03T07:44:36;22.20;87.40
34095;DHT22;20372;47.080;15.410;2022-09-03T07:47:02;22.20;85.50
34095;DHT22;20372;47.080;15.410;2022-09-03T07:49:28;22.10;83.50
34095;DHT22;20372;47.080;15.410;2022-09-03T07:51:53;22.10;87.40
34095;DHT22;20372;47.080;15.410;2022-09-03T07:54:19;22.30;86.10
34095;DHT22;20372;47.080;15.410;2022-09-03T07:56:46;22.50;84.20
34095;DHT22;20372;47.080;15.410;2022-09-03T07:59:12;22.90;84.70
34095;DHT22;20372;47.080;15.410;2022-09-03T08:01:38;22.80;85.40
34095;DHT22;20372;47.080;15.410;2022-09-03T08:04:03;22.50;84.80
34095;DHT22;20372;47.080;15.410;2022-09-03T08:06:31;22.70;84.70
34095;DHT22;20372;47.080;15.410;2022-09-03T08:08:59;22.70;84.20
34095;DHT22;20372;47.080;15.410;2022-09-03T08:11:26;22.50;85.10
34095;DHT22;20372;47.080;15.410;2022-09-03T08:13:56;23.00;85.10
34095;DHT22;20372;47.080;15.410;2022-09-03T08:16:25;23.00;83.40
34095;DHT22;20372;47.080;15.410;2022-09-03T08:18:51;23.30;87.00
34095;DHT22;20372;47.080;15.410;2022-09-03T08:21:18;23.20;83.00
34095;DHT22;20372;47.080;15.410;2022-09-03T08:23:45;23.80;84.30
34095;DHT22;20372;47.080;15.410;2022-09-03T08:26:11;23.50;81.20
34095;DHT22;20372;47.080;15.410;2022-09-03T08:28:38;23.40;86.60
34095;DHT22;20372;47.080;15.410;2022-09-03T08:33:31;23.40;82.90
34095;DHT22;20372;47.080;15.410;2022-09-03T08:36:06;23.60;85.20
34095;DHT22;20372;47.080;15.410;2022-09-03T08:38:33;23.80;84.40
34095;DHT22;20372;47.080;15.410;2022-09-03T08:41:04;23.80;82.00
34095;DHT22;20372;47.080;15.410;2022-09-03T08:43:30;24.10;82.50
34095;DHT22;20372;47.080;15.410;2022-09-03T08:45:56;24.40;84.60
34095;DHT22;20372;47.080;15.410;2022-09-03T08:48:24;24.60;79.40
34095;DHT22;20372;47.080;15.410;2022-09-03T08:50:53;23.50;79.90
34095;DHT22;20372;47.080;15.410;2022-09-03T08:53:29;23.30;81.30
34095;DHT22;20372;47.080;15.410;2022-09-03T08:56:08;23.30;81.20
34095;DHT22;20372;47.080;15.410;2022-09-03T08:58:35;23.50;81.90
34095;DHT22;20372;47.080;15.410;2022-09-03T09:06:25;24.60;86.50
34095;DHT22;20372;47.080;15.410;2022-09-03T09:11:36;24.10;79.80
34095;DHT22;20372;47.080;15.410;2022-09-03T09:14:12;23.90;84.20
34095;DHT22;20372;47.080;15.410;2022-09-03T09:21:48;23.40;82.80
34095;DHT22;20372;47.080;15.410;2022-09-03T09:24:21;23.60;82.80
34095;DHT22;20372;47.080;15.410;2022-09-03T09:26:48;23.90;86.50
34095;DHT22;20372;47.080;15.410;2022-09-03T09:29:14;24.00;86.00
34095;DHT22;20372;47.080;15.410;2022-09-03T09:31:40;24.10;83.50
34095;DHT22;20372;47.080;15.410;2022-09-03T09:34:09;22.30;83.10
34095;DHT22;20372;47.080;15.410;2022-09-03T09:36:36;22.20;84.50
34095;DHT22;20372;47.080;15.410;2022-09-03T09:39:07;22.70;83.00
34095;DHT22;20372;47.080;15.410;2022-09-03T09:41:33;22.40;84.50
34095;DHT22;20372;47.080;15.410;2022-09-03T09:43:59;22.70;87.50
34095;DHT22;20372;47.080;15.410;2022-09-03T09:46:36;22.90;88.00
34095;DHT22;20372;47.080;15.410;2022-09-03T09:49:06;23.60;87.50
34095;DHT22;20372;47.080;15.410;2022-09-03T09:51:33;23.50;81.30
34095;DHT22;20372;47.080;15.410;2022-09-03T09:54:09;23.40;84.00
34095;DHT22;20372;47.080;15.410;2022-09-03T09:56:37;23.40;83.00
34095;DHT22;20372;47.080;15.410;2022-09-03T09:59:06;23.80;85.70
34095;DHT22;20372;47.080;15.410;2022-09-03T10:01:32;23.20;80.30
34095;DHT22;20372;47.080;15.410;2022-09-03T10:03:59;23.00;84.30
34095;DHT22;20372;47.080;15.410;2022-09-03T10:06:27;23.50;87.30
34095;DHT22;20372;47.080;15.410;2022-09-03T10:09:13;23.50;85.80
34095;DHT22;20372;47.080;15.410;2022-09-03T10:11:41;23.50;84.00
34095;DHT22;20372;47.080;15.410;2022-09-03T10:14:12;23.60;87.00
34095;DHT22;20372;47.080;15.410;2022-09-03T10:16:41;23.40;85.00
34095;DHT22;20372;47.080;15.410;2022-09-03T10:19:22;22.80;83.00
34095;DHT22;20372;47.080;15.410;2022-09-03T10:22:28;22.80;84.80
34095;DHT22;20372;47.080;15.410;2022-09-03T10:24:52;22.50;83.50
34095;DHT22;20372;47.080;15.410;2022-09-03T10:27:20;22.40;90.00
34095;DHT22;20372;47.080;15.410;2022-09-03T10:29:48;22.70;89.80
34095;DHT22;20372;47.080;15.410;2022-09-03T10:32:25;22.90;87.20
34095;DHT22;20372;47.080;15.410;2022-09-03T10:34:59;22.80;82.00
34095;DHT22;20372;47.080;15.410;2022-09-03T10:37:36;22.50;83.70
34095;DHT22;20372;47.080;15.410;2022-09-03T10:42:34;22.90;86.10
34095;DHT22;20372;47.080;15.410;2022-09-03T10:50:14;23.00;84.60
34095;DHT22;20372;47.080;15.410;2022-09-03T10:55:11;23.00;81.10
34095;DHT22;20372;47.080;15.410;2022-09-03T11:00:23;22.70;83.00
34095;DHT22;20372;47.080;15.410;2022-09-03T11:03:33;22.60;83.70
34095;DHT22;20372;47.080;15.410;2022-09-03T11:05:40;22.80;83.50
34095;DHT22;20372;47.080;15.410;2022-09-03T11:10:37;23.60;82.60
34095;DHT22;20372;47.080;15.410;2022-09-03T11:15:36;23.00;81.20
34095;DHT22;20372;47.080;15.410;2022-09-03T11:18:03;22.50;83.00
34095;DHT22;20372;47.080;15.410;2022-09-03T11:20:32;22.60;84.80
34095;DHT22;20372;47.080;15.410;2022-09-03T11:23:02;22.60;81.20
34095;DHT22;20372;47.080;15.410;2022-09-03T11:25:33;22.20;83.10
34095;DHT22;20372;47.080;15.410;2022-09-03T11:30:34;23.20;83.00
34095;DHT22;20372;47.080;15.410;2022-09-03T11:33:05;23.50;81.30
34095;DHT22;20372;47.080;15.410;2022-09-03T11:38:19;23.90;86.80
34095;DHT22;20372;47.080;15.410;2022-09-03T11:46:00;22.90;84.10
34095;DHT22;20372;47.080;15.410;2022-09-03T11:48:37;22.90;85.50
34095;DHT22;20372;47.080;15.410;2022-09-03T11:51:03;23.40;89.20
34095;DHT22;20372;47.080;15.410;2022-09-03T11:53:32;23.80;86.70
34095;DHT22;20372;47.080;15.410;2022-09-03T11:58:39;23.30;84.60
34095;DHT22;20372;47.080;15.410;2022-09-03T12:01:08;23.40;86.90
34095;DHT22;20372;47.080;15.410;2022-09-03T12:04:20;23.50;83.20
34095;DHT22;20372;47.080;15.410;2022-09-03T12:22:13;23.40;82.60
34095;DHT22;20372;47.080;15.410;2022-09-03T12:24:39;23.60;82.00
34095;DHT22;20372;47.080;15.410;2022-09-03T12:27:08;23.70;82.10
34095;DHT22;20372;47.080;15.410;2022-09-03T12:29:34;23.50;81.80
34095;DHT22;20372;47.080;15.410;2022-09-03T12:32:07;23.00;83.70
34095;DHT22;20372;47.080;15.410;2022-09-03T12:34:33;23.50;82.10
34095;DHT22;20372;47.080;15.410;2022-09-03T12:36:59;23.00;82.00
34095;DHT22;20372;47.080;15.410;2022-09-03T12:39:25;23.10;81.00
34095;DHT22;20372;47.080;15.410;2022-09-03T12:44:26;23.20;82.40
34095;DHT22;20372;47.080;15.410;2022-09-03T12:47:13;23.50;82.70
34095;DHT22;20372;47.080;15.410;2022-09-03T12:49:40;23.50;82.60
34095;DHT22;20372;47.080;15.410;2022-09-03T12:52:28;23.80;87.10
34095;DHT22;20372;47.080;15.410;2022-09-03T12:54:56;23.80;82.30
34095;DHT22;20372;47.080;15.410;2022-09-03T12:57:34;23.50;81.40
34095;DHT22;20372;47.080;15.410;2022-09-03T13:00:03;23.60;82.50
34095;DHT22;20372;47.080;15.410;2022-09-03T13:02:52;23.70;81.90
34095;DHT22;20372;47.080;15.410;2022-09-03T13:05:16;23.90;83.00
34095;DHT22;20372;47.080;15.410;2022-09-03T13:07:44;24.10;85.20
34095;DHT22;20372;47.080;15.410;2022-09-03T13:10:28;24.00;81.50
34095;DHT22;20372;47.080;15.410;2022-09-03T13:12:59;23.80;81.80
34095;DHT22;20372;47.080;15.410;2022-09-03T13:15:25;23.80;82.30
34095;DHT22;20372;47.080;15.410;2022-09-03T13:33:37;23.60;85.80
34095;DHT22;20372;47.080;15.410;2022-09-03T13:36:02;23.60;86.50
34095;DHT22;20372;47.080;15.410;2022-09-03T13:43:31;23.80;83.50
34095;DHT22;20372;47.080;15.410;2022-09-03T13:46:06;24.00;83.00
34095;DHT22;20372;47.080;15.410;2022-09-03T13:48:36;24.20;85.50
34095;DHT22;20372;47.080;15.410;2022-09-03T13:54:26;24.20;83.70
34095;DHT22;20372;47.080;15.410;2022-09-03T13:56:54;24.30;86.40
34095;DHT22;20372;47.080;15.410;2022-09-03T13:59:47;24.30;81.60
34095;DHT22;20372;47.080;15.410;2022-09-03T14:02:17;24.20;82.30
34095;DHT22;20372;47.080;15.410;2022-09-03T14:04:57;24.20;85.60
34095;DHT22;20372;47.080;15.410;2022-09-03T14:10:49;24.10;87.90
34095;DHT22;20372;47.080;15.410;2022-09-03T14:15:34;23.70;88.10
34095;DHT22;20372;47.080;15.410;2022-09-03T14:18:02;23.70;87.00
34095;DHT22;20372;47.080;15.410;2022-09-03T14:20:35;23.80;83.00
34095;DHT22;20372;47.080;15.410;2022-09-03T14:25:53;24.20;84.60
34095;DHT22;20372;47.080;15.410;2022-09-03T14:28:39;24.40;82.30
34095;DHT22;20372;47.080;15.410;2022-09-03T14:33:43;24.20;85.30
34095;DHT22;20372;47.080;15.410;2022-09-03T14:36:18;24.20;81.80
34095;DHT22;20372;47.080;15.410;2022-09-03T14:44:06;24.00;81.10
34095;DHT22;20372;47.080;15.410;2022-09-03T14:52:00;24.10;81.40
34095;DHT22;20372;47.080;15.410;2022-09-03T14:59:37;24.10;84.80
34095;DHT22;20372;47.080;15.410;2022-09-03T15:02:14;23.90;84.50
34095;DHT22;20372;47.080;15.410;2022-09-03T15:04:47;23.80;82.60
34095;DHT22;20372;47.080;15.410;2022-09-03T15:07:38;23.80;82.60
34095;DHT22;20372;47.080;15.410;2022-09-03T15:14:55;23.80;81.90
34095;DHT22;20372;47.080;15.410;2022-09-03T15:17:41;23.70;82.30
34095;DHT22;20372;47.080;15.410;2022-09-03T15:20:14;23.80;84.50
34095;DHT22;20372;47.080;15.410;2022-09-03T15:25:17;23.80;85.50
34095;DHT22;20372;47.080;15.410;2022-09-03T15:30:15;23.80;85.50
34095;DHT22;20372;47.080;15.410;2022-09-03T15:32:49;23.90;84.10
34095;DHT22;20372;47.080;15.410;2022-09-03T15:37:58;23.80;82.00
34095;DHT22;20372;47.080;15.410;2022-09-03T15:43:29;23.50;84.50
34095;DHT22;20372;47.080;15.410;2022-09-03T15:53:32;23.20;83.90
34095;DHT22;20372;47.080;15.410;2022-09-03T15:56:03;23.10;84.50
34095;DHT22;20372;47.080;15.410;2022-09-03T15:58:37;23.10;84.90
34095;DHT22;20372;47.080;15.410;2022-09-03T16:01:08;23.00;84.80
34095;DHT22;20372;47.080;15.410;2022-09-03T16:06:32;23.00;85.00
34095;DHT22;20372;47.080;15.410;2022-09-03T16:09:06;23.00;85.30
34095;DHT22;20372;47.080;15.410;2022-09-03T16:15:02;22.90;85.10
34095;DHT22;20372;47.080;15.410;2022-09-03T16:19:27;22.80;84.90
34095;DHT22;20372;47.080;15.410;2022-09-03T16:24:25;22.70;85.20
34095;DHT22;20372;47.080;15.410;2022-09-03T16:27:06;22.70;85.60
34095;DHT22;20372;47.080;15.410;2022-09-03T16:29:33;22.70;85.50
34095;DHT22;20372;47.080;15.410;2022-09-03T16:42:10;22.60;86.60
34095;DHT22;20372;47.080;15.410;2022-09-03T16:44:43;22.60;86.60
34095;DHT22;20372;47.080;15.410;2022-09-03T16:47:20;22.60;86.90
34095;DHT22;20372;47.080;15.410;2022-09-03T16:50:03;22.50;87.20
34095;DHT22;20372;47.080;15.410;2022-09-03T16:52:47;22.50;87.80
34095;DHT22;20372;47.080;15.410;2022-09-03T17:03:26;22.30;88.00
34095;DHT22;20372;47.080;15.410;2022-09-03T17:11:06;22.10;88.00
34095;DHT22;20372;47.080;15.410;2022-09-03T17:19:10;22.00;88.40
34095;DHT22;20372;47.080;15.410;2022-09-03T17:21:47;21.90;88.70
34095;DHT22;20372;47.080;15.410;2022-09-03T17:50:30;21.70;88.60
34095;DHT22;20372;47.080;15.410;2022-09-03T17:55:43;21.70;88.50
34095;DHT22;20372;47.080;15.410;2022-09-03T18:03:21;21.60;89.80
34095;DHT22;20372;47.080;15.410;2022-09-03T18:05:52;21.60;89.60
34095;DHT22;20372;47.080;15.410;2022-09-03T18:11:26;21.50;89.80
34095;DHT22;20372;47.080;15.410;2022-09-03T18:13:56;21.50;89.50
34095;DHT22;20372;47.080;15.410;2022-09-03T18:18:52;21.40;89.80
34095;DHT22;20372;47.080;15.410;2022-09-03T18:21:23;21.40;89.70
34095;DHT22;20372;47.080;15.410;2022-09-03T18:27:11;21.30;90.70
34095;DHT22;20372;47.080;15.410;2022-09-03T18:30:02;21.20;90.70
34095;DHT22;20372;47.080;15.410;2022-09-03T18:32:46;21.10;90.90
34095;DHT22;20372;47.080;15.410;2022-09-03T18:35:31;21.10;91.20
34095;DHT22;20372;47.080;15.410;2022-09-03T18:38:37;20.90;91.30
34095;DHT22;20372;47.080;15.410;2022-09-03T18:41:31;20.80;91.90
34095;DHT22;20372;47.080;15.410;2022-09-03T18:50:12;20.60;92.00
34095;DHT22;20372;47.080;15.410;2022-09-03T18:56:08;20.40;92.70
34095;DHT22;20372;47.080;15.410;2022-09-03T18:59:00;20.40;95.20
34095;DHT22;20372;47.080;15.410;2022-09-03T19:01:49;20.40;93.50
34095;DHT22;20372;47.080;15.410;2022-09-03T19:04:44;20.30;94.00
34095;DHT22;20372;47.080;15.410;2022-09-03T19:10:21;20.20;93.30
34095;DHT22;20372;47.080;15.410;2022-09-03T19:21:35;20.10;94.00
34095;DHT22;20372;47.080;15.410;2022-09-03T19:24:25;20.00;94.20
34095;DHT22;20372;47.080;15.410;2022-09-03T19:27:13;20.00;94.20
34095;DHT22;20372;47.080;15.410;2022-09-03T19:35:41;19.90;93.90
34095;DHT22;20372;47.080;15.410;2022-09-03T19:38:48;19.90;93.90
34095;DHT22;20372;47.080;15.410;2022-09-03T19:42:08;19.90;93.80
34095;DHT22;20372;47.080;15.410;2022-09-03T19:50:33;19.70;93.90
34095;DHT22;20372;47.080;15.410;2022-09-03T19:53:18;19.80;93.70
34095;DHT22;20372;47.080;15.410;2022-09-03T19:56:08;19.80;93.50
34095;DHT22;20372;47.080;15.410;2022-09-03T19:58:54;19.80;93.70
34095;DHT22;20372;47.080;15.410;2022-09-03T20:01:39;19.70;93.80
34095;DHT22;20372;47.080;15.410;2022-09-03T20:04:32;19.70;94.60
34095;DHT22;20372;47.080;15.410;2022-09-03T20:07:17;19.50;95.40
34095;DHT22;20372;47.080;15.410;2022-09-03T20:10:03;19.50;95.80
34095;DHT22;20372;47.080;15.410;2022-09-03T20:15:21;19.30;96.80
34095;DHT22;20372;47.080;15.410;2022-09-03T20:20:22;19.20;96.50
34095;DHT22;20372;47.080;15.410;2022-09-03T20:30:31;19.00;98.10
34095;DHT22;20372;47.080;15.410;2022-09-03T20:45:50;18.80;99.50
34095;DHT22;20372;47.080;15.410;2022-09-03T20:48:26;18.80;99.80
34095;DHT22;20372;47.080;15.410;2022-09-03T20:51:00;18.70;99.90
34095;DHT22;20372;47.080;15.410;2022-09-03T20:53:46;18.60;99.90
34095;DHT22;20372;47.080;15.410;2022-09-03T20:59:20;18.50;99.90
34095;DHT22;20372;47.080;15.410;2022-09-03T21:12:15;18.40;99.90
34095;DHT22;20372;47.080;15.410;2022-09-03T21:14:53;18.40;99.90
34095;DHT22;20372;47.080;15.410;2022-09-03T21:17:28;18.30;99.90
34095;DHT22;20372;47.080;15.410;2022-09-03T21:27:15;18.20;99.90